createdAt,value
2022-08-11T00:00:13.841Z,74.00
2022-08-11T00:02:44.066Z,74.10
2022-08-11T00:05:15.071Z,74.30
2022-08-11T00:07:51.421Z,74.40
2022-08-11T00:10:27.799Z,74.50
2022-08-11T00:12:58.584Z,74.60
2022-08-11T00:15:27.143Z,74.70
2022-08-11T00:18:00.077Z,74.70
2022-08-11T00:20:35.339Z,74.80
2022-08-11T00:23:14.182Z,74.90
2022-08-11T00:25:51.918Z,75.00
2022-08-11T00:28:33.701Z,75.00
2022-08-11T00:31:06.258Z,75.20
2022-08-11T00:33:45.196Z,75.30
2022-08-11T00:36:15.779Z,75.30
2022-08-11T00:38:45.192Z,75.30
2022-08-11T00:41:41.750Z,75.30
2022-08-11T00:44:26.811Z,75.50
2022-08-11T00:47:28.981Z,75.60
2022-08-11T00:50:01.421Z,75.70
2022-08-11T00:52:40.600Z,75.70
2022-08-11T00:55:55.925Z,75.90
2022-08-11T00:58:50.686Z,76.00
2022-08-11T01:01:17.813Z,76.10
2022-08-11T01:04:22.103Z,76.10
2022-08-11T01:07:14.694Z,76.10
2022-08-11T01:10:07.541Z,76.40
2022-08-11T01:12:44.055Z,76.30
2022-08-11T01:15:32.298Z,76.50
2022-08-11T01:18:17.161Z,76.70
2022-08-11T01:21:07.840Z,76.70
2022-08-11T01:24:19.520Z,77.00
2022-08-11T01:27:03.169Z,77.30
2022-08-11T01:30:03.576Z,77.40
2022-08-11T01:32:36.162Z,77.60
2022-08-11T01:35:24.449Z,77.70
2022-08-11T01:38:14.982Z,77.70
2022-08-11T01:41:03.075Z,77.80
2022-08-11T01:43:48.302Z,77.90
2022-08-11T01:46:32.503Z,78.00
2022-08-11T01:49:29.058Z,78.90
2022-08-11T01:52:18.616Z,78.10
2022-08-11T01:55:26.776Z,78.10
2022-08-11T01:58:19.904Z,78.20
2022-08-11T02:01:05.780Z,78.20
2022-08-11T02:03:44.679Z,78.20
2022-08-11T02:06:40.937Z,78.30
2022-08-11T02:09:17.209Z,78.40
2022-08-11T02:11:49.433Z,78.50
2022-08-11T02:14:34.184Z,78.50
2022-08-11T02:17:21.164Z,78.50
2022-08-11T02:20:22.117Z,78.50
2022-08-11T02:23:58.685Z,78.50
2022-08-11T02:26:24.774Z,78.50
2022-08-11T02:29:30.985Z,78.70
2022-08-11T02:32:39.028Z,78.70
2022-08-11T02:35:14.727Z,78.80
2022-08-11T02:38:00.897Z,79.00
2022-08-11T02:40:56.707Z,79.00
2022-08-11T02:43:41.130Z,79.10
2022-08-11T02:47:00.224Z,79.10
2022-08-11T02:50:06.366Z,79.20
2022-08-11T02:52:49.334Z,79.30
2022-08-11T02:56:08.651Z,79.40
2022-08-11T02:59:21.832Z,79.50
2022-08-11T03:02:05.188Z,79.70
2022-08-11T03:04:51.317Z,79.80
2022-08-11T03:07:28.832Z,80.30
2022-08-11T03:10:09.843Z,80.30
2022-08-11T03:13:19.907Z,80.40
2022-08-11T03:16:26.453Z,80.50
2022-08-11T03:19:12.645Z,80.60
2022-08-11T03:22:07.412Z,81.50
2022-08-11T03:24:40.087Z,80.80
2022-08-11T03:27:24.131Z,80.80
2022-08-11T03:30:08.178Z,80.90
2022-08-11T03:33:24.094Z,81.00
2022-08-11T03:36:25.964Z,81.00
2022-08-11T03:39:13.244Z,81.20
2022-08-11T03:42:02.610Z,81.10
2022-08-11T03:45:13.470Z,81.30
2022-08-11T03:47:57.005Z,81.40
2022-08-11T03:50:55.385Z,81.50
2022-08-11T03:53:46.587Z,81.80
2022-08-11T03:56:50.280Z,81.80
2022-08-11T03:59:17.159Z,81.80
2022-08-11T04:02:10.099Z,82.00
2022-08-11T04:05:13.595Z,82.00
2022-08-11T04:08:04.434Z,82.20
2022-08-11T04:10:48.302Z,82.30
2022-08-11T04:13:32.917Z,82.50
2022-08-11T04:16:15.915Z,82.60
2022-08-11T04:19:29.821Z,82.60
2022-08-11T04:22:32.991Z,82.50
2022-08-11T04:25:10.785Z,82.60
2022-08-11T04:27:56.174Z,82.80
2022-08-11T04:30:44.740Z,82.70
2022-08-11T04:33:35.032Z,82.80
2022-08-11T04:36:09.501Z,82.60
2022-08-11T04:38:46.041Z,82.80
2022-08-11T04:42:08.870Z,82.70
2022-08-11T04:44:53.824Z,82.90
2022-08-11T04:48:08.544Z,83.10
2022-08-11T04:51:27.784Z,83.40
2022-08-11T04:55:04.323Z,83.40
2022-08-11T04:58:20.576Z,83.40
2022-08-11T05:01:26.709Z,83.50
2022-08-11T05:04:32.238Z,84.40
2022-08-11T05:07:31.572Z,83.80
2022-08-11T05:10:45.975Z,83.70
2022-08-11T05:13:43.237Z,83.80
2022-08-11T05:16:34.680Z,84.00
2022-08-11T05:19:21.142Z,84.20
2022-08-11T05:22:12.766Z,84.00
2022-08-11T05:25:15.640Z,84.30
2022-08-11T05:28:51.607Z,84.80
2022-08-11T05:31:41.065Z,84.20
2022-08-11T05:34:26.408Z,84.60
2022-08-11T05:37:23.941Z,84.80
2022-08-11T05:40:10.045Z,85.00
2022-08-11T05:43:02.007Z,85.10
2022-08-11T05:46:02.636Z,85.20
2022-08-11T05:48:54.962Z,85.20
2022-08-11T05:51:52.320Z,85.20
2022-08-11T05:54:42.527Z,85.60
2022-08-11T05:57:48.919Z,85.90
2022-08-11T06:00:15.789Z,86.00
2022-08-11T06:02:55.229Z,86.40
2022-08-11T06:05:22.799Z,86.70
2022-08-11T06:07:56.956Z,86.50
2022-08-11T06:10:33.231Z,86.80
2022-08-11T06:13:01.195Z,86.90
2022-08-11T06:15:30.087Z,87.10
2022-08-11T06:17:58.887Z,87.40
2022-08-11T06:20:26.011Z,87.80
2022-08-11T06:23:03.581Z,87.90
2022-08-11T06:25:32.813Z,88.00
2022-08-11T06:28:00.746Z,88.20
2022-08-11T06:30:47.088Z,88.10
2022-08-11T06:33:33.436Z,88.00
2022-08-11T06:36:10.988Z,88.20
2022-08-11T06:39:12.524Z,88.30
2022-08-11T06:41:54.287Z,88.50
2022-08-11T06:44:39.793Z,88.20
2022-08-11T06:47:10.159Z,88.20
2022-08-11T06:50:04.483Z,88.00
2022-08-11T06:52:36.656Z,88.10
2022-08-11T06:55:58.039Z,87.90
2022-08-11T06:58:49.508Z,88.00
2022-08-11T07:01:21.229Z,88.00
2022-08-11T07:03:58.320Z,88.00
2022-08-11T07:07:12.390Z,88.10
2022-08-11T07:10:13.109Z,87.90
2022-08-11T07:13:09.162Z,88.10
2022-08-11T07:16:12.655Z,87.90
2022-08-11T07:19:00.510Z,87.80
2022-08-11T07:22:02.972Z,87.30
2022-08-11T07:25:01.317Z,87.10
2022-08-11T07:27:56.063Z,87.20
2022-08-11T07:30:31.850Z,87.00
2022-08-11T07:33:01.736Z,87.10
2022-08-11T07:35:33.870Z,87.10
2022-08-11T07:38:11.682Z,87.10
2022-08-11T07:40:39.118Z,87.00
2022-08-11T07:43:07.076Z,86.90
2022-08-11T07:45:53.300Z,86.80
2022-08-11T07:48:39.318Z,86.60
2022-08-11T07:51:24.875Z,86.40
2022-08-11T07:53:58.504Z,86.20
2022-08-11T07:56:55.255Z,86.40
2022-08-11T08:00:03.760Z,86.50
2022-08-11T08:02:49.421Z,86.60
2022-08-11T08:05:36.223Z,86.40
2022-08-11T08:08:21.990Z,86.30
2022-08-11T08:11:08.438Z,85.90
2022-08-11T08:13:55.777Z,85.60
2022-08-11T08:16:41.348Z,86.40
2022-08-11T08:19:11.169Z,85.80
2022-08-11T08:21:39.254Z,85.60
2022-08-11T08:24:07.363Z,85.10
2022-08-11T08:27:03.502Z,84.70
2022-08-11T08:29:52.974Z,84.70
2022-08-11T08:32:22.177Z,84.60
2022-08-11T08:34:54.975Z,84.60
2022-08-11T08:37:47.203Z,83.20
2022-08-11T08:40:14.499Z,83.10
2022-08-11T08:42:53.503Z,82.70
2022-08-11T08:45:20.923Z,82.60
2022-08-11T08:47:54.883Z,82.20
2022-08-11T08:50:27.496Z,82.20
2022-08-11T08:53:05.893Z,81.70
2022-08-11T08:55:33.684Z,81.40
2022-08-11T08:58:01.059Z,80.80
2022-08-11T09:00:42.887Z,79.90
2022-08-11T09:03:36.448Z,79.70
2022-08-11T09:05:58.457Z,79.70
2022-08-11T09:08:25.659Z,80.00
2022-08-11T09:11:14.034Z,80.40
2022-08-11T09:13:44.233Z,79.90
2022-08-11T09:16:13.457Z,79.60
2022-08-11T09:18:44.551Z,79.60
2022-08-11T09:21:14.684Z,79.60
2022-08-11T09:24:26.103Z,79.00
2022-08-11T09:27:00.212Z,78.80
2022-08-11T09:29:29.014Z,79.10
2022-08-11T09:31:57.020Z,78.70
2022-08-11T09:34:26.412Z,78.50
2022-08-11T09:37:13.507Z,78.40
2022-08-11T09:40:15.538Z,78.90
2022-08-11T09:43:02.625Z,79.10
2022-08-11T09:45:39.893Z,78.70
2022-08-11T09:48:07.846Z,78.90
2022-08-11T09:50:38.226Z,79.00
2022-08-11T09:53:36.681Z,79.10
2022-08-11T09:55:53.674Z,79.20
2022-08-11T09:58:41.633Z,79.30
2022-08-11T10:01:26.967Z,79.30
2022-08-11T10:04:24.856Z,78.60
2022-08-11T10:07:04.599Z,77.80
2022-08-11T10:09:39.417Z,77.80
2022-08-11T10:12:11.027Z,77.80
2022-08-11T10:15:04.340Z,77.70
2022-08-11T10:17:36.371Z,76.60
2022-08-11T10:20:07.606Z,76.90
2022-08-11T10:22:54.358Z,75.30
2022-08-11T10:25:40.660Z,75.20
2022-08-11T10:28:28.775Z,74.90
2022-08-11T10:31:15.197Z,74.90
2022-08-11T10:34:00.315Z,74.30
2022-08-11T10:36:32.781Z,75.10
2022-08-11T10:39:02.290Z,73.70
2022-08-11T10:42:06.436Z,73.60
2022-08-11T10:44:44.334Z,73.60
2022-08-11T10:47:32.360Z,72.70
2022-08-11T10:50:18.721Z,73.10
2022-08-11T10:53:06.995Z,73.40
2022-08-11T10:55:53.832Z,73.70
2022-08-11T10:58:43.854Z,74.00
2022-08-11T11:01:11.637Z,73.70
2022-08-11T11:03:39.100Z,72.50
2022-08-11T11:06:12.797Z,72.60
2022-08-11T11:09:11.147Z,73.10
2022-08-11T11:11:59.594Z,73.50
2022-08-11T11:14:56.389Z,74.00
2022-08-11T11:17:48.609Z,74.00
2022-08-11T11:20:34.634Z,73.90
2022-08-11T11:23:33.684Z,73.00
2022-08-11T11:26:27.463Z,72.40
2022-08-11T11:29:20.607Z,71.70
2022-08-11T11:32:14.527Z,71.60
2022-08-11T11:34:52.857Z,71.90
2022-08-11T11:37:22.922Z,71.80
2022-08-11T11:39:50.184Z,70.90
2022-08-11T11:42:18.478Z,71.20
2022-08-11T11:44:46.842Z,70.90
2022-08-11T11:47:16.143Z,70.70
2022-08-11T11:49:47.354Z,70.90
2022-08-11T11:52:18.481Z,70.00
2022-08-11T11:54:52.031Z,69.40
2022-08-11T11:57:41.461Z,69.50
2022-08-11T12:00:48.755Z,69.10
2022-08-11T12:03:17.859Z,69.60
2022-08-11T12:05:47.148Z,69.30
2022-08-11T12:08:19.323Z,69.40
2022-08-11T12:11:15.588Z,69.60
2022-08-11T12:13:45.479Z,69.60
2022-08-11T12:16:33.759Z,69.70
2022-08-11T12:19:05.219Z,69.70
2022-08-11T12:21:34.215Z,69.70
2022-08-11T12:24:21.550Z,69.60
2022-08-11T12:27:15.245Z,69.50
2022-08-11T12:29:36.393Z,68.30
2022-08-11T12:32:10.564Z,68.20
2022-08-11T12:34:37.585Z,68.10
2022-08-11T12:37:10.729Z,68.10
2022-08-11T12:40:15.931Z,67.50
2022-08-11T12:43:37.291Z,67.70
2022-08-11T12:46:13.884Z,67.00
2022-08-11T12:49:04.231Z,66.90
2022-08-11T12:52:12.925Z,67.00
2022-08-11T12:54:47.943Z,67.10
2022-08-11T12:57:50.855Z,67.10
2022-08-11T13:00:37.903Z,67.00
2022-08-11T13:03:25.689Z,67.10
2022-08-11T13:05:55.746Z,66.90
2022-08-11T13:08:25.009Z,66.90
2022-08-11T13:11:12.261Z,66.40
2022-08-11T13:13:54.136Z,66.20
2022-08-11T13:16:25.126Z,66.00
2022-08-11T13:18:53.249Z,66.10
2022-08-11T13:21:21.680Z,65.90
2022-08-11T13:24:00.873Z,65.60
2022-08-11T13:26:43.479Z,65.60
2022-08-11T13:29:20.015Z,64.90
2022-08-11T13:31:47.994Z,64.70
2022-08-11T13:34:20.032Z,64.90
2022-08-11T13:36:53.024Z,64.20
2022-08-11T13:39:24.205Z,63.70
2022-08-11T13:41:55.111Z,63.40
2022-08-11T13:44:25.866Z,64.10
2022-08-11T13:47:02.342Z,64.40
2022-08-11T13:49:31.251Z,64.30
2022-08-11T13:51:59.252Z,64.30
2022-08-11T13:54:30.242Z,65.20
2022-08-11T13:57:00.950Z,64.30
2022-08-11T13:59:29.777Z,64.00
2022-08-11T14:02:21.671Z,63.70
2022-08-11T14:04:57.914Z,63.70
2022-08-11T14:07:37.597Z,62.90
2022-08-11T14:10:07.544Z,62.90
2022-08-11T14:12:55.725Z,62.60
2022-08-11T14:15:34.789Z,62.80
2022-08-11T14:21:14.604Z,62.80
2022-08-11T14:23:44.766Z,62.80
2022-08-11T14:26:28.507Z,62.70
2022-08-11T14:29:02.782Z,62.80
2022-08-11T14:31:31.910Z,62.80
2022-08-11T14:34:02.551Z,62.80
2022-08-11T14:36:35.537Z,62.80
2022-08-11T14:39:06.845Z,62.70
2022-08-11T14:42:11.464Z,62.40
2022-08-11T14:45:23.388Z,62.50
2022-08-11T14:47:53.443Z,62.30
2022-08-11T14:50:25.834Z,62.20
2022-08-11T14:53:01.273Z,62.10
2022-08-11T14:55:48.669Z,61.90
2022-08-11T14:58:18.274Z,61.70
2022-08-11T15:00:46.330Z,61.50
2022-08-11T15:03:15.388Z,61.30
2022-08-11T15:05:55.835Z,61.20
2022-08-11T15:08:48.167Z,60.60
2022-08-11T15:11:36.499Z,60.40
2022-08-11T15:14:07.311Z,60.20
2022-08-11T15:16:58.653Z,60.40
2022-08-11T15:19:27.350Z,60.40
2022-08-11T15:22:12.602Z,60.30
2022-08-11T15:24:39.315Z,60.20
2022-08-11T15:27:29.863Z,60.20
2022-08-11T15:30:32.460Z,60.30
2022-08-11T15:33:22.895Z,60.30
2022-08-11T15:36:10.048Z,60.50
2022-08-11T15:38:42.712Z,60.40
2022-08-11T15:41:32.331Z,60.60
2022-08-11T15:44:18.774Z,60.30
2022-08-11T15:46:49.309Z,60.20
2022-08-11T15:50:11.270Z,60.30
2022-08-11T15:52:19.432Z,60.10
2022-08-11T15:54:49.045Z,60.10
2022-08-11T15:57:40.028Z,60.00
2022-08-11T16:00:26.843Z,59.90
2022-08-11T16:02:54.957Z,60.00
2022-08-11T16:05:45.645Z,60.00
2022-08-11T16:08:15.446Z,59.70
2022-08-11T16:10:44.085Z,59.70
2022-08-11T16:13:13.766Z,60.00
2022-08-11T16:16:14.300Z,59.70
2022-08-11T16:18:57.207Z,59.70
2022-08-11T16:21:36.170Z,59.30
2022-08-11T16:26:30.474Z,59.00
2022-08-11T16:27:13.050Z,58.50
2022-08-11T16:29:47.655Z,58.40
2022-08-11T16:32:21.688Z,58.70
2022-08-11T16:35:12.036Z,58.80
2022-08-11T16:37:58.822Z,58.40
2022-08-11T16:40:25.921Z,58.10
2022-08-11T16:43:12.514Z,57.80
2022-08-11T16:45:59.437Z,57.80
2022-08-11T16:48:36.352Z,57.40
2022-08-11T16:51:10.513Z,56.90
2022-08-11T16:53:59.765Z,56.50
2022-08-11T16:56:33.638Z,56.10
2022-08-11T16:59:18.297Z,56.10
2022-08-11T17:01:53.257Z,56.00
2022-08-11T17:04:43.716Z,55.80
2022-08-11T17:07:42.107Z,55.80
2022-08-11T17:10:52.658Z,55.60
2022-08-11T17:13:36.835Z,55.50
2022-08-11T17:16:13.123Z,55.40
2022-08-11T17:18:48.005Z,55.40
2022-08-11T17:21:22.915Z,55.10
2022-08-11T17:23:54.962Z,55.00
2022-08-11T17:26:58.690Z,54.80
2022-08-11T17:29:32.094Z,54.70
2022-08-11T17:32:20.759Z,55.00
2022-08-11T17:35:07.835Z,55.30
2022-08-11T17:37:36.524Z,55.60
2022-08-11T17:40:06.893Z,55.70
2022-08-11T17:43:01.636Z,55.80
2022-08-11T17:46:00.575Z,55.50
2022-08-11T17:48:29.670Z,55.30
2022-08-11T17:51:04.252Z,55.10
2022-08-11T17:54:23.973Z,54.80
2022-08-11T17:57:21.406Z,54.70
2022-08-11T17:59:53.567Z,54.80
2022-08-11T18:02:46.229Z,55.00
2022-08-11T18:05:14.137Z,55.10
2022-08-11T18:08:01.579Z,55.60
2022-08-11T18:10:49.600Z,56.10
2022-08-11T18:13:40.617Z,56.50
2022-08-11T18:16:27.046Z,57.00
2022-08-11T18:19:15.462Z,57.30
2022-08-11T18:22:14.367Z,57.90
2022-08-11T18:25:07.980Z,58.50
2022-08-11T18:27:56.997Z,59.10
2022-08-11T18:30:43.705Z,59.70
2022-08-11T18:36:42.345Z,60.60
2022-08-11T18:39:30.662Z,60.80
2022-08-11T18:42:29.184Z,60.90
2022-08-11T18:45:31.952Z,61.20
2022-08-11T18:48:39.011Z,61.30
2022-08-11T18:51:31.335Z,61.30
2022-08-11T18:54:30.854Z,61.50
2022-08-11T18:57:20.731Z,61.70
2022-08-11T19:00:07.295Z,61.70
2022-08-11T19:02:55.322Z,61.80
2022-08-11T19:06:31.918Z,62.00
2022-08-11T19:08:50.722Z,62.10
2022-08-11T19:11:43.558Z,62.10
2022-08-11T19:14:31.478Z,62.30
2022-08-11T19:17:45.126Z,62.20
2022-08-11T19:20:29.075Z,62.20
2022-08-11T19:23:16.086Z,62.30
2022-08-11T19:26:06.015Z,62.40
2022-08-11T19:28:54.073Z,62.60
2022-08-11T19:31:44.310Z,62.70
2022-08-11T19:34:43.581Z,62.80
2022-08-11T19:37:30.188Z,62.90
2022-08-11T19:40:27.336Z,62.90
2022-08-11T19:43:23.789Z,63.00
2022-08-11T19:46:16.812Z,63.00
2022-08-11T19:49:09.710Z,63.10
2022-08-11T19:51:56.773Z,63.20
2022-08-11T19:54:46.903Z,63.30
2022-08-11T19:57:39.357Z,63.50
2022-08-11T20:00:30.217Z,63.70
2022-08-11T20:03:16.990Z,63.90
2022-08-11T20:06:03.897Z,64.30
2022-08-11T20:08:52.965Z,64.60
2022-08-11T20:11:41.256Z,64.90
2022-08-11T20:14:28.134Z,65.10
2022-08-11T20:17:15.007Z,65.40
2022-08-11T20:22:51.282Z,66.20
2022-08-11T20:25:38.310Z,67.30
2022-08-11T20:28:25.153Z,66.70
2022-08-11T20:31:11.835Z,67.00
2022-08-11T20:33:58.023Z,67.20
2022-08-11T20:36:45.780Z,67.40
2022-08-11T20:39:36.210Z,67.70
2022-08-11T20:42:26.156Z,68.10
2022-08-11T20:45:16.699Z,68.20
2022-08-11T20:48:06.802Z,68.50
2022-08-11T20:50:54.985Z,68.60
2022-08-11T20:53:43.307Z,68.70
2022-08-11T20:56:30.197Z,69.00
2022-08-11T20:59:21.983Z,69.10
2022-08-11T21:05:19.597Z,69.60
2022-08-11T21:08:25.429Z,69.60
2022-08-11T21:11:13.155Z,69.80
2022-08-11T21:14:01.637Z,69.80
2022-08-11T21:16:53.446Z,69.90
2022-08-11T21:19:59.773Z,69.90
2022-08-11T21:23:19.997Z,70.00
2022-08-11T21:26:23.750Z,69.90
2022-08-11T21:29:12.868Z,69.90
2022-08-11T21:32:00.293Z,69.90
2022-08-11T21:34:46.411Z,70.00
2022-08-11T21:37:34.240Z,70.00
2022-08-11T21:40:21.617Z,70.10
2022-08-11T21:43:08.543Z,70.20
2022-08-11T21:45:57.209Z,70.30
2022-08-11T21:48:47.485Z,70.40
2022-08-11T21:51:32.905Z,70.50
2022-08-11T21:54:19.989Z,70.40
2022-08-11T21:57:06.547Z,70.50
2022-08-11T22:00:10.767Z,70.50
2022-08-11T22:03:03.376Z,70.60
2022-08-11T22:05:51.069Z,70.60
2022-08-11T22:08:37.003Z,70.60
2022-08-11T22:11:31.792Z,70.70
2022-08-11T22:14:19.065Z,70.70
2022-08-11T22:17:04.120Z,70.80
2022-08-11T22:19:50.414Z,71.00
2022-08-11T22:22:35.700Z,71.20
2022-08-11T22:25:39.429Z,71.30
2022-08-11T22:28:37.600Z,71.50
2022-08-11T22:31:24.387Z,71.70
2022-08-11T22:34:09.845Z,71.80
2022-08-11T22:36:56.261Z,72.00
2022-08-11T22:39:43.323Z,72.30
2022-08-11T22:42:34.012Z,72.30
2022-08-11T22:45:20.089Z,72.60
2022-08-11T22:48:07.543Z,72.60
2022-08-11T22:50:55.417Z,72.70
2022-08-11T22:53:55.255Z,72.80
2022-08-11T22:56:45.481Z,72.80
2022-08-11T22:59:32.806Z,72.90
2022-08-11T23:02:18.308Z,73.00
2022-08-11T23:05:03.752Z,73.00
2022-08-11T23:07:50.551Z,73.10
2022-08-11T23:10:38.814Z,73.10
2022-08-11T23:13:25.899Z,73.30
2022-08-11T23:16:14.718Z,73.40
2022-08-11T23:19:00.582Z,73.40
2022-08-11T23:21:47.030Z,73.50
2022-08-11T23:24:32.887Z,73.60
2022-08-11T23:27:20.483Z,73.60
2022-08-11T23:30:09.137Z,73.60
2022-08-11T23:32:55.090Z,73.60
2022-08-11T23:35:53.996Z,73.70
2022-08-11T23:38:42.356Z,73.80
2022-08-11T23:41:27.610Z,74.00
2022-08-11T23:44:13.708Z,74.20
2022-08-11T23:46:59.944Z,74.30
2022-08-11T23:49:46.871Z,74.40
2022-08-11T23:52:33.813Z,74.40
2022-08-11T23:55:19.057Z,74.40
2022-08-11T23:58:04.649Z,74.40
